sensor_id;sensor_type;location;lat;lon;timestamp;temperature;humidity
11426;DHT22;5769;47.998;7.788;2024-01-25T00:02:01;18.90;61.70
11426;DHT22;5769;47.998;7.788;2024-01-25T00:04:30;18.80;61.70
11426;DHT22;5769;47.998;7.788;2024-01-25T00:06:58;18.80;61.70
11426;DHT22;5769;47.998;7.788;2024-01-25T00:09:26;18.80;61.70
11426;DHT22;5769;47.998;7.788;2024-01-25T00:11:54;18.80;61.80
11426;DHT22;5769;47.998;7.788;2024-01-25T00:14:23;18.80;61.70
11426;DHT22;5769;47.998;7.788;2024-01-25T00:16:54;18.80;61.70
11426;DHT22;5769;47.998;7.788;2024-01-25T00:19:21;18.80;61.70
11426;DHT22;5769;47.998;7.788;2024-01-25T00:21:51;18.80;61.70
11426;DHT22;5769;47.998;7.788;2024-01-25T00:24:22;18.80;61.60
11426;DHT22;5769;47.998;7.788;2024-01-25T00:26:53;18.80;61.70
11426;DHT22;5769;47.998;7.788;2024-01-25T00:29:21;18.80;61.60
11426;DHT22;5769;47.998;7.788;2024-01-25T00:31:50;18.80;61.70
11426;DHT22;5769;47.998;7.788;2024-01-25T00:34:30;18.80;61.70
11426;DHT22;5769;47.998;7.788;2024-01-25T00:37:08;18.80;61.80
11426;DHT22;5769;47.998;7.788;2024-01-25T00:39:46;18.80;61.80
11426;DHT22;5769;47.998;7.788;2024-01-25T00:42:16;18.80;61.70
11426;DHT22;5769;47.998;7.788;2024-01-25T00:44:44;18.80;61.60
11426;DHT22;5769;47.998;7.788;2024-01-25T00:47:13;18.80;61.60
11426;DHT22;5769;47.998;7.788;2024-01-25T00:49:43;18.80;61.60
11426;DHT22;5769;47.998;7.788;2024-01-25T00:52:12;18.80;61.60
11426;DHT22;5769;47.998;7.788;2024-01-25T00:54:41;18.80;61.60
11426;DHT22;5769;47.998;7.788;2024-01-25T00:57:11;18.80;61.70
11426;DHT22;5769;47.998;7.788;2024-01-25T00:59:40;18.80;61.70
11426;DHT22;5769;47.998;7.788;2024-01-25T01:02:12;18.70;61.70
11426;DHT22;5769;47.998;7.788;2024-01-25T01:04:42;18.80;61.70
11426;DHT22;5769;47.998;7.788;2024-01-25T01:07:11;18.80;61.70
11426;DHT22;5769;47.998;7.788;2024-01-25T01:09:39;18.80;61.70
11426;DHT22;5769;47.998;7.788;2024-01-25T01:12:07;18.80;61.70
11426;DHT22;5769;47.998;7.788;2024-01-25T01:14:35;18.80;61.60
11426;DHT22;5769;47.998;7.788;2024-01-25T01:17:06;18.80;61.70
11426;DHT22;5769;47.998;7.788;2024-01-25T01:19:44;18.80;61.70
11426;DHT22;5769;47.998;7.788;2024-01-25T01:22:15;18.80;61.70
11426;DHT22;5769;47.998;7.788;2024-01-25T01:24:52;18.80;61.60
11426;DHT22;5769;47.998;7.788;2024-01-25T01:30:59;18.80;61.50
11426;DHT22;5769;47.998;7.788;2024-01-25T01:33:58;18.80;61.50
11426;DHT22;5769;47.998;7.788;2024-01-25T01:36:51;18.80;61.60
11426;DHT22;5769;47.998;7.788;2024-01-25T01:39:25;18.80;61.60
11426;DHT22;5769;47.998;7.788;2024-01-25T01:42:10;18.70;61.60
11426;DHT22;5769;47.998;7.788;2024-01-25T01:44:39;18.80;61.60
11426;DHT22;5769;47.998;7.788;2024-01-25T01:47:54;18.80;61.60
11426;DHT22;5769;47.998;7.788;2024-01-25T01:50:24;18.80;61.60
11426;DHT22;5769;47.998;7.788;2024-01-25T01:52:57;18.80;61.60
11426;DHT22;5769;47.998;7.788;2024-01-25T01:55:24;18.70;61.60
11426;DHT22;5769;47.998;7.788;2024-01-25T01:57:54;18.70;61.70
11426;DHT22;5769;47.998;7.788;2024-01-25T02:00:24;18.70;61.70
11426;DHT22;5769;47.998;7.788;2024-01-25T02:02:54;18.70;61.70
11426;DHT22;5769;47.998;7.788;2024-01-25T02:05:23;18.70;61.70
11426;DHT22;5769;47.998;7.788;2024-01-25T02:07:54;18.70;61.70
11426;DHT22;5769;47.998;7.788;2024-01-25T02:10:23;18.70;61.80
11426;DHT22;5769;47.998;7.788;2024-01-25T02:12:51;18.70;61.70
11426;DHT22;5769;47.998;7.788;2024-01-25T02:15:18;18.70;61.70
11426;DHT22;5769;47.998;7.788;2024-01-25T02:17:48;18.80;61.80
11426;DHT22;5769;47.998;7.788;2024-01-25T02:20:18;18.80;61.70
11426;DHT22;5769;47.998;7.788;2024-01-25T02:22:48;18.70;61.70
11426;DHT22;5769;47.998;7.788;2024-01-25T02:25:18;18.70;61.70
11426;DHT22;5769;47.998;7.788;2024-01-25T02:27:47;18.70;61.70
11426;DHT22;5769;47.998;7.788;2024-01-25T02:30:14;18.70;61.70
11426;DHT22;5769;47.998;7.788;2024-01-25T02:32:43;18.80;61.70
11426;DHT22;5769;47.998;7.788;2024-01-25T02:35:13;18.70;61.60
11426;DHT22;5769;47.998;7.788;2024-01-25T02:37:47;18.80;61.70
11426;DHT22;5769;47.998;7.788;2024-01-25T02:40:16;18.70;61.70
11426;DHT22;5769;47.998;7.788;2024-01-25T02:42:43;18.70;61.70
11426;DHT22;5769;47.998;7.788;2024-01-25T02:45:10;18.70;61.70
11426;DHT22;5769;47.998;7.788;2024-01-25T02:47:58;18.70;61.70
11426;DHT22;5769;47.998;7.788;2024-01-25T02:50:31;18.70;61.70
11426;DHT22;5769;47.998;7.788;2024-01-25T02:53:05;18.70;61.70
11426;DHT22;5769;47.998;7.788;2024-01-25T02:55:34;18.70;61.70
11426;DHT22;5769;47.998;7.788;2024-01-25T02:58:01;18.70;61.70
11426;DHT22;5769;47.998;7.788;2024-01-25T03:00:31;18.70;61.60
11426;DHT22;5769;47.998;7.788;2024-01-25T03:02:59;18.70;61.60
11426;DHT22;5769;47.998;7.788;2024-01-25T03:05:26;18.70;61.50
11426;DHT22;5769;47.998;7.788;2024-01-25T03:07:55;18.70;61.60
11426;DHT22;5769;47.998;7.788;2024-01-25T03:10:26;18.70;61.70
11426;DHT22;5769;47.998;7.788;2024-01-25T03:12:53;18.70;61.70
11426;DHT22;5769;47.998;7.788;2024-01-25T03:15:25;18.70;61.70
11426;DHT22;5769;47.998;7.788;2024-01-25T03:17:52;18.70;61.70
11426;DHT22;5769;47.998;7.788;2024-01-25T03:20:22;18.70;61.70
11426;DHT22;5769;47.998;7.788;2024-01-25T03:22:49;18.70;61.70
11426;DHT22;5769;47.998;7.788;2024-01-25T03:25:16;18.70;61.70
11426;DHT22;5769;47.998;7.788;2024-01-25T03:27:59;18.70;61.70
11426;DHT22;5769;47.998;7.788;2024-01-25T03:30:28;18.70;61.70
11426;DHT22;5769;47.998;7.788;2024-01-25T03:32:55;18.70;61.80
11426;DHT22;5769;47.998;7.788;2024-01-25T03:35:22;18.70;61.80
11426;DHT22;5769;47.998;7.788;2024-01-25T03:37:51;18.70;61.80
11426;DHT22;5769;47.998;7.788;2024-01-25T03:40:21;18.70;61.80
11426;DHT22;5769;47.998;7.788;2024-01-25T03:42:59;18.70;61.70
11426;DHT22;5769;47.998;7.788;2024-01-25T03:45:26;18.70;61.70
11426;DHT22;5769;47.998;7.788;2024-01-25T03:47:53;18.70;61.70
11426;DHT22;5769;47.998;7.788;2024-01-25T03:50:23;18.70;61.70
11426;DHT22;5769;47.998;7.788;2024-01-25T03:52:49;18.70;61.80
11426;DHT22;5769;47.998;7.788;2024-01-25T03:55:23;18.70;61.80
11426;DHT22;5769;47.998;7.788;2024-01-25T03:57:50;18.70;61.80
11426;DHT22;5769;47.998;7.788;2024-01-25T04:00:22;18.60;61.70
11426;DHT22;5769;47.998;7.788;2024-01-25T04:02:49;18.70;61.80
11426;DHT22;5769;47.998;7.788;2024-01-25T04:05:16;18.60;61.70
11426;DHT22;5769;47.998;7.788;2024-01-25T04:07:46;18.70;61.70
11426;DHT22;5769;47.998;7.788;2024-01-25T04:10:14;18.70;62.50
11426;DHT22;5769;47.998;7.788;2024-01-25T04:12:43;18.70;61.70
11426;DHT22;5769;47.998;7.788;2024-01-25T04:15:12;18.70;61.70
11426;DHT22;5769;47.998;7.788;2024-01-25T04:17:40;18.70;61.70
11426;DHT22;5769;47.998;7.788;2024-01-25T04:20:07;18.70;61.80
11426;DHT22;5769;47.998;7.788;2024-01-25T04:22:37;18.60;61.70
11426;DHT22;5769;47.998;7.788;2024-01-25T04:25:04;18.60;61.70
11426;DHT22;5769;47.998;7.788;2024-01-25T04:27:31;18.60;61.70
11426;DHT22;5769;47.998;7.788;2024-01-25T04:29:59;18.60;61.70
11426;DHT22;5769;47.998;7.788;2024-01-25T04:32:32;18.60;61.70
11426;DHT22;5769;47.998;7.788;2024-01-25T04:35:01;18.70;61.80
11426;DHT22;5769;47.998;7.788;2024-01-25T04:37:30;18.60;61.60
11426;DHT22;5769;47.998;7.788;2024-01-25T04:40:00;18.70;62.50
11426;DHT22;5769;47.998;7.788;2024-01-25T04:42:27;18.60;61.70
11426;DHT22;5769;47.998;7.788;2024-01-25T04:44:54;18.60;61.70
11426;DHT22;5769;47.998;7.788;2024-01-25T04:47:25;18.70;61.70
11426;DHT22;5769;47.998;7.788;2024-01-25T04:49:53;18.60;61.70
11426;DHT22;5769;47.998;7.788;2024-01-25T04:52:25;18.60;61.70
11426;DHT22;5769;47.998;7.788;2024-01-25T04:54:52;18.60;61.70
11426;DHT22;5769;47.998;7.788;2024-01-25T04:57:22;18.60;61.80
11426;DHT22;5769;47.998;7.788;2024-01-25T04:59:54;18.60;61.70
11426;DHT22;5769;47.998;7.788;2024-01-25T05:02:20;18.60;61.80
11426;DHT22;5769;47.998;7.788;2024-01-25T05:04:47;18.60;61.70
11426;DHT22;5769;47.998;7.788;2024-01-25T05:07:14;18.60;61.70
11426;DHT22;5769;47.998;7.788;2024-01-25T05:09:42;18.60;61.70
11426;DHT22;5769;47.998;7.788;2024-01-25T05:12:09;18.60;61.80
11426;DHT22;5769;47.998;7.788;2024-01-25T05:14:41;18.60;61.80
11426;DHT22;5769;47.998;7.788;2024-01-25T05:17:08;18.60;61.80
11426;DHT22;5769;47.998;7.788;2024-01-25T05:19:38;18.60;61.80
11426;DHT22;5769;47.998;7.788;2024-01-25T05:22:04;18.60;61.80
11426;DHT22;5769;47.998;7.788;2024-01-25T05:24:36;18.60;61.70
11426;DHT22;5769;47.998;7.788;2024-01-25T05:27:05;18.60;61.70
11426;DHT22;5769;47.998;7.788;2024-01-25T05:29:32;18.60;61.80
11426;DHT22;5769;47.998;7.788;2024-01-25T05:31:59;18.60;61.90
11426;DHT22;5769;47.998;7.788;2024-01-25T05:34:27;18.60;61.80
11426;DHT22;5769;47.998;7.788;2024-01-25T05:36:54;18.60;61.80
11426;DHT22;5769;47.998;7.788;2024-01-25T05:39:21;18.60;61.70
11426;DHT22;5769;47.998;7.788;2024-01-25T05:41:48;18.60;61.70
11426;DHT22;5769;47.998;7.788;2024-01-25T05:44:16;18.60;61.70
11426;DHT22;5769;47.998;7.788;2024-01-25T05:46:43;18.60;61.70
11426;DHT22;5769;47.998;7.788;2024-01-25T05:49:10;18.60;61.70
11426;DHT22;5769;47.998;7.788;2024-01-25T05:51:37;18.60;61.70
11426;DHT22;5769;47.998;7.788;2024-01-25T05:54:04;18.60;61.70
11426;DHT22;5769;47.998;7.788;2024-01-25T05:56:34;18.60;61.70
11426;DHT22;5769;47.998;7.788;2024-01-25T05:59:04;18.60;61.70
11426;DHT22;5769;47.998;7.788;2024-01-25T06:01:37;18.60;61.70
11426;DHT22;5769;47.998;7.788;2024-01-25T06:04:07;18.60;61.70
11426;DHT22;5769;47.998;7.788;2024-01-25T06:06:34;18.60;61.70
11426;DHT22;5769;47.998;7.788;2024-01-25T06:09:01;18.60;61.80
11426;DHT22;5769;47.998;7.788;2024-01-25T06:11:28;18.60;61.80
11426;DHT22;5769;47.998;7.788;2024-01-25T06:13:58;18.60;61.70
11426;DHT22;5769;47.998;7.788;2024-01-25T06:16:26;18.60;61.70
11426;DHT22;5769;47.998;7.788;2024-01-25T06:18:54;18.60;61.70
11426;DHT22;5769;47.998;7.788;2024-01-25T06:21:21;18.60;61.70
11426;DHT22;5769;47.998;7.788;2024-01-25T06:23:54;18.60;61.70
11426;DHT22;5769;47.998;7.788;2024-01-25T06:26:22;18.60;61.70
11426;DHT22;5769;47.998;7.788;2024-01-25T06:28:53;18.60;61.70
11426;DHT22;5769;47.998;7.788;2024-01-25T06:31:23;18.60;61.70
11426;DHT22;5769;47.998;7.788;2024-01-25T06:33:51;18.60;61.70
11426;DHT22;5769;47.998;7.788;2024-01-25T06:36:22;18.60;61.70
11426;DHT22;5769;47.998;7.788;2024-01-25T06:38:49;18.60;61.80
11426;DHT22;5769;47.998;7.788;2024-01-25T06:41:19;18.60;61.70
11426;DHT22;5769;47.998;7.788;2024-01-25T06:43:49;18.60;61.60
11426;DHT22;5769;47.998;7.788;2024-01-25T06:46:19;18.60;61.60
11426;DHT22;5769;47.998;7.788;2024-01-25T06:48:47;18.60;61.70
11426;DHT22;5769;47.998;7.788;2024-01-25T06:51:20;18.60;61.70
11426;DHT22;5769;47.998;7.788;2024-01-25T06:53:47;18.60;61.70
11426;DHT22;5769;47.998;7.788;2024-01-25T06:56:18;18.60;61.70
11426;DHT22;5769;47.998;7.788;2024-01-25T06:58:48;18.60;61.80
11426;DHT22;5769;47.998;7.788;2024-01-25T07:01:21;18.60;61.80
11426;DHT22;5769;47.998;7.788;2024-01-25T07:03:48;18.60;62.60
11426;DHT22;5769;47.998;7.788;2024-01-25T07:06:26;18.60;61.70
11426;DHT22;5769;47.998;7.788;2024-01-25T07:08:54;18.60;61.70
11426;DHT22;5769;47.998;7.788;2024-01-25T07:11:20;18.60;61.70
11426;DHT22;5769;47.998;7.788;2024-01-25T07:13:50;18.60;61.70
11426;DHT22;5769;47.998;7.788;2024-01-25T07:16:19;18.60;61.70
11426;DHT22;5769;47.998;7.788;2024-01-25T07:18:47;18.60;61.70
11426;DHT22;5769;47.998;7.788;2024-01-25T07:21:14;18.60;61.70
11426;DHT22;5769;47.998;7.788;2024-01-25T07:23:45;18.60;61.70
11426;DHT22;5769;47.998;7.788;2024-01-25T07:26:17;18.60;61.70
11426;DHT22;5769;47.998;7.788;2024-01-25T07:28:44;18.60;61.70
11426;DHT22;5769;47.998;7.788;2024-01-25T07:31:11;18.60;61.80
11426;DHT22;5769;47.998;7.788;2024-01-25T07:33:39;18.60;61.70
11426;DHT22;5769;47.998;7.788;2024-01-25T07:36:11;18.60;61.70
11426;DHT22;5769;47.998;7.788;2024-01-25T07:38:41;18.60;61.70
11426;DHT22;5769;47.998;7.788;2024-01-25T07:41:08;18.50;61.70
11426;DHT22;5769;47.998;7.788;2024-01-25T07:43:42;18.60;61.80
11426;DHT22;5769;47.998;7.788;2024-01-25T07:46:10;18.60;61.80
11426;DHT22;5769;47.998;7.788;2024-01-25T07:48:42;18.60;61.80
11426;DHT22;5769;47.998;7.788;2024-01-25T07:51:14;18.60;61.80
11426;DHT22;5769;47.998;7.788;2024-01-25T07:53:48;18.60;61.70
11426;DHT22;5769;47.998;7.788;2024-01-25T07:56:15;18.60;61.70
11426;DHT22;5769;47.998;7.788;2024-01-25T07:58:49;18.50;61.70
11426;DHT22;5769;47.998;7.788;2024-01-25T08:01:21;18.50;61.70
11426;DHT22;5769;47.998;7.788;2024-01-25T08:04:01;18.60;61.70
11426;DHT22;5769;47.998;7.788;2024-01-25T08:06:30;18.60;61.70
11426;DHT22;5769;47.998;7.788;2024-01-25T08:08:59;18.60;61.70
11426;DHT22;5769;47.998;7.788;2024-01-25T08:11:34;18.60;61.70
11426;DHT22;5769;47.998;7.788;2024-01-25T08:14:06;18.60;61.70
11426;DHT22;5769;47.998;7.788;2024-01-25T08:16:34;18.60;61.70
11426;DHT22;5769;47.998;7.788;2024-01-25T08:19:02;18.50;61.70
11426;DHT22;5769;47.998;7.788;2024-01-25T08:21:32;18.50;61.70
11426;DHT22;5769;47.998;7.788;2024-01-25T08:24:03;18.50;61.70
11426;DHT22;5769;47.998;7.788;2024-01-25T08:26:36;18.60;61.70
11426;DHT22;5769;47.998;7.788;2024-01-25T08:29:04;18.60;61.70
11426;DHT22;5769;47.998;7.788;2024-01-25T08:31:38;18.60;61.70
11426;DHT22;5769;47.998;7.788;2024-01-25T08:34:09;18.50;61.70
11426;DHT22;5769;47.998;7.788;2024-01-25T08:36:45;18.50;61.70
11426;DHT22;5769;47.998;7.788;2024-01-25T08:39:23;18.50;61.70
11426;DHT22;5769;47.998;7.788;2024-01-25T08:41:51;18.50;61.70
11426;DHT22;5769;47.998;7.788;2024-01-25T08:44:22;18.50;61.70
11426;DHT22;5769;47.998;7.788;2024-01-25T08:46:50;18.50;61.70
11426;DHT22;5769;47.998;7.788;2024-01-25T08:49:20;18.50;61.70
11426;DHT22;5769;47.998;7.788;2024-01-25T08:51:49;18.50;61.70
11426;DHT22;5769;47.998;7.788;2024-01-25T08:54:26;18.50;61.70
11426;DHT22;5769;47.998;7.788;2024-01-25T08:56:53;18.50;61.70
11426;DHT22;5769;47.998;7.788;2024-01-25T08:59:22;18.50;61.70
11426;DHT22;5769;47.998;7.788;2024-01-25T09:01:49;18.50;61.70
11426;DHT22;5769;47.998;7.788;2024-01-25T09:04:17;18.50;61.70
11426;DHT22;5769;47.998;7.788;2024-01-25T09:06:45;18.50;61.70
11426;DHT22;5769;47.998;7.788;2024-01-25T09:09:13;18.50;61.70
11426;DHT22;5769;47.998;7.788;2024-01-25T09:11:42;18.50;61.70
11426;DHT22;5769;47.998;7.788;2024-01-25T09:14:09;18.50;61.70
11426;DHT22;5769;47.998;7.788;2024-01-25T09:16:36;18.50;61.80
11426;DHT22;5769;47.998;7.788;2024-01-25T09:19:04;18.50;61.70
11426;DHT22;5769;47.998;7.788;2024-01-25T09:21:32;18.50;61.70
11426;DHT22;5769;47.998;7.788;2024-01-25T09:23:59;18.50;61.70
11426;DHT22;5769;47.998;7.788;2024-01-25T09:26:26;18.50;61.70
11426;DHT22;5769;47.998;7.788;2024-01-25T09:28:54;18.50;61.70
11426;DHT22;5769;47.998;7.788;2024-01-25T09:31:21;18.50;61.70
11426;DHT22;5769;47.998;7.788;2024-01-25T09:33:51;18.50;61.70
11426;DHT22;5769;47.998;7.788;2024-01-25T09:36:19;18.50;61.70
11426;DHT22;5769;47.998;7.788;2024-01-25T09:38:48;18.50;61.70
11426;DHT22;5769;47.998;7.788;2024-01-25T09:41:15;18.50;61.80
11426;DHT22;5769;47.998;7.788;2024-01-25T09:43:42;18.50;61.70
11426;DHT22;5769;47.998;7.788;2024-01-25T09:46:13;18.50;61.70
11426;DHT22;5769;47.998;7.788;2024-01-25T09:48:41;18.50;61.70
11426;DHT22;5769;47.998;7.788;2024-01-25T09:51:09;18.50;61.70
11426;DHT22;5769;47.998;7.788;2024-01-25T09:53:39;18.50;61.70
11426;DHT22;5769;47.998;7.788;2024-01-25T09:56:12;18.50;61.70
11426;DHT22;5769;47.998;7.788;2024-01-25T09:58:43;18.50;61.70
11426;DHT22;5769;47.998;7.788;2024-01-25T10:01:13;18.50;61.70
11426;DHT22;5769;47.998;7.788;2024-01-25T10:03:44;18.50;61.70
11426;DHT22;5769;47.998;7.788;2024-01-25T10:06:15;18.50;61.70
11426;DHT22;5769;47.998;7.788;2024-01-25T10:08:53;18.50;61.70
11426;DHT22;5769;47.998;7.788;2024-01-25T10:11:24;18.50;61.70
11426;DHT22;5769;47.998;7.788;2024-01-25T10:13:51;18.50;62.40
11426;DHT22;5769;47.998;7.788;2024-01-25T10:16:20;18.50;61.70
11426;DHT22;5769;47.998;7.788;2024-01-25T10:18:48;18.50;61.70
11426;DHT22;5769;47.998;7.788;2024-01-25T10:21:15;18.50;61.70
11426;DHT22;5769;47.998;7.788;2024-01-25T10:23:44;18.60;62.40
11426;DHT22;5769;47.998;7.788;2024-01-25T10:26:11;18.60;61.80
11426;DHT22;5769;47.998;7.788;2024-01-25T10:28:38;18.70;62.10
11426;DHT22;5769;47.998;7.788;2024-01-25T10:31:04;18.70;62.10
11426;DHT22;5769;47.998;7.788;2024-01-25T10:33:34;18.70;62.30
11426;DHT22;5769;47.998;7.788;2024-01-25T10:36:04;18.70;62.50
11426;DHT22;5769;47.998;7.788;2024-01-25T10:38:32;18.70;62.50
11426;DHT22;5769;47.998;7.788;2024-01-25T10:41:01;18.70;62.50
11426;DHT22;5769;47.998;7.788;2024-01-25T10:43:28;18.80;62.60
11426;DHT22;5769;47.998;7.788;2024-01-25T10:45:56;18.70;62.50
11426;DHT22;5769;47.998;7.788;2024-01-25T10:48:24;18.80;62.80
11426;DHT22;5769;47.998;7.788;2024-01-25T10:50:52;18.80;62.90
11426;DHT22;5769;47.998;7.788;2024-01-25T10:53:21;18.70;62.90
11426;DHT22;5769;47.998;7.788;2024-01-25T10:55:50;18.80;62.90
11426;DHT22;5769;47.998;7.788;2024-01-25T10:58:17;18.80;62.90
11426;DHT22;5769;47.998;7.788;2024-01-25T11:00:51;18.80;63.10
11426;DHT22;5769;47.998;7.788;2024-01-25T11:03:25;18.70;63.00
11426;DHT22;5769;47.998;7.788;2024-01-25T11:05:55;18.80;63.10
11426;DHT22;5769;47.998;7.788;2024-01-25T11:08:23;18.80;63.20
11426;DHT22;5769;47.998;7.788;2024-01-25T11:10:54;18.80;63.20
11426;DHT22;5769;47.998;7.788;2024-01-25T11:13:24;18.80;63.20
11426;DHT22;5769;47.998;7.788;2024-01-25T11:15:55;18.80;63.30
11426;DHT22;5769;47.998;7.788;2024-01-25T11:18:25;18.80;63.30
11426;DHT22;5769;47.998;7.788;2024-01-25T11:20:59;18.80;63.20
11426;DHT22;5769;47.998;7.788;2024-01-25T11:23:32;18.80;63.30
11426;DHT22;5769;47.998;7.788;2024-01-25T11:25:59;18.80;63.20
11426;DHT22;5769;47.998;7.788;2024-01-25T11:28:29;18.80;63.30
11426;DHT22;5769;47.998;7.788;2024-01-25T11:30:58;18.90;63.20
11426;DHT22;5769;47.998;7.788;2024-01-25T11:33:27;18.90;63.30
11426;DHT22;5769;47.998;7.788;2024-01-25T11:35:58;18.90;63.20
11426;DHT22;5769;47.998;7.788;2024-01-25T11:38:25;18.90;63.30
11426;DHT22;5769;47.998;7.788;2024-01-25T11:40:57;18.90;63.30
11426;DHT22;5769;47.998;7.788;2024-01-25T11:43:28;18.90;63.30
11426;DHT22;5769;47.998;7.788;2024-01-25T11:45:58;18.90;63.20
11426;DHT22;5769;47.998;7.788;2024-01-25T11:48:27;18.90;63.30
11426;DHT22;5769;47.998;7.788;2024-01-25T11:51:02;18.90;63.20
11426;DHT22;5769;47.998;7.788;2024-01-25T11:53:30;18.90;63.30
11426;DHT22;5769;47.998;7.788;2024-01-25T11:55:57;18.90;63.30
11426;DHT22;5769;47.998;7.788;2024-01-25T11:58:27;18.90;63.30
11426;DHT22;5769;47.998;7.788;2024-01-25T12:01:00;18.90;63.20
11426;DHT22;5769;47.998;7.788;2024-01-25T12:03:35;19.00;63.30
11426;DHT22;5769;47.998;7.788;2024-01-25T12:06:04;18.90;63.20
11426;DHT22;5769;47.998;7.788;2024-01-25T12:08:32;18.90;63.20
11426;DHT22;5769;47.998;7.788;2024-01-25T12:11:03;18.90;63.20
11426;DHT22;5769;47.998;7.788;2024-01-25T12:13:35;19.00;63.30
11426;DHT22;5769;47.998;7.788;2024-01-25T12:16:03;19.00;63.40
11426;DHT22;5769;47.998;7.788;2024-01-25T12:18:42;19.00;63.40
11426;DHT22;5769;47.998;7.788;2024-01-25T12:21:11;19.00;63.50
11426;DHT22;5769;47.998;7.788;2024-01-25T12:23:42;19.00;63.40
11426;DHT22;5769;47.998;7.788;2024-01-25T12:26:10;19.00;63.50
11426;DHT22;5769;47.998;7.788;2024-01-25T12:28:37;19.00;63.50
11426;DHT22;5769;47.998;7.788;2024-01-25T12:31:07;19.00;63.60
11426;DHT22;5769;47.998;7.788;2024-01-25T12:33:36;19.00;63.60
11426;DHT22;5769;47.998;7.788;2024-01-25T12:36:04;19.00;63.60
11426;DHT22;5769;47.998;7.788;2024-01-25T12:38:32;19.00;63.60
11426;DHT22;5769;47.998;7.788;2024-01-25T12:41:00;19.00;63.50
11426;DHT22;5769;47.998;7.788;2024-01-25T12:43:29;18.90;63.50
11426;DHT22;5769;47.998;7.788;2024-01-25T12:45:56;19.00;63.60
11426;DHT22;5769;47.998;7.788;2024-01-25T12:48:25;19.00;63.50
11426;DHT22;5769;47.998;7.788;2024-01-25T12:50:52;19.00;63.40
11426;DHT22;5769;47.998;7.788;2024-01-25T12:53:20;18.90;63.40
11426;DHT22;5769;47.998;7.788;2024-01-25T12:55:49;18.90;63.50
11426;DHT22;5769;47.998;7.788;2024-01-25T12:58:16;18.90;63.50
11426;DHT22;5769;47.998;7.788;2024-01-25T13:00:43;18.80;63.60
11426;DHT22;5769;47.998;7.788;2024-01-25T13:03:11;18.90;63.60
11426;DHT22;5769;47.998;7.788;2024-01-25T13:05:50;18.80;63.60
11426;DHT22;5769;47.998;7.788;2024-01-25T13:08:20;18.80;63.60
11426;DHT22;5769;47.998;7.788;2024-01-25T13:10:47;18.80;63.60
11426;DHT22;5769;47.998;7.788;2024-01-25T13:13:15;18.80;63.60
11426;DHT22;5769;47.998;7.788;2024-01-25T13:15:43;18.80;63.60
11426;DHT22;5769;47.998;7.788;2024-01-25T13:18:10;18.80;63.60
11426;DHT22;5769;47.998;7.788;2024-01-25T13:20:37;18.80;63.60
11426;DHT22;5769;47.998;7.788;2024-01-25T13:23:06;18.80;63.60
11426;DHT22;5769;47.998;7.788;2024-01-25T13:25:33;18.80;63.60
11426;DHT22;5769;47.998;7.788;2024-01-25T13:28:00;18.70;63.60
11426;DHT22;5769;47.998;7.788;2024-01-25T13:30:28;18.70;63.60
11426;DHT22;5769;47.998;7.788;2024-01-25T13:33:00;18.70;63.60
11426;DHT22;5769;47.998;7.788;2024-01-25T13:35:27;18.80;63.70
11426;DHT22;5769;47.998;7.788;2024-01-25T13:37:54;18.70;63.60
11426;DHT22;5769;47.998;7.788;2024-01-25T13:40:28;18.70;63.70
11426;DHT22;5769;47.998;7.788;2024-01-25T13:42:58;18.70;63.60
11426;DHT22;5769;47.998;7.788;2024-01-25T13:45:30;18.70;63.70
11426;DHT22;5769;47.998;7.788;2024-01-25T13:48:00;18.70;63.70
11426;DHT22;5769;47.998;7.788;2024-01-25T13:50:26;18.70;63.70
11426;DHT22;5769;47.998;7.788;2024-01-25T13:52:57;18.70;63.70
11426;DHT22;5769;47.998;7.788;2024-01-25T13:55:24;18.70;63.80
11426;DHT22;5769;47.998;7.788;2024-01-25T13:57:53;18.70;63.80
11426;DHT22;5769;47.998;7.788;2024-01-25T14:00:28;18.70;63.80
11426;DHT22;5769;47.998;7.788;2024-01-25T14:02:56;18.70;63.80
11426;DHT22;5769;47.998;7.788;2024-01-25T14:05:25;18.70;63.80
11426;DHT22;5769;47.998;7.788;2024-01-25T14:07:51;18.70;63.80
11426;DHT22;5769;47.998;7.788;2024-01-25T14:10:18;18.70;63.80
11426;DHT22;5769;47.998;7.788;2024-01-25T14:12:57;18.70;63.80
11426;DHT22;5769;47.998;7.788;2024-01-25T14:15:27;18.70;63.80
11426;DHT22;5769;47.998;7.788;2024-01-25T14:17:57;18.70;63.80
11426;DHT22;5769;47.998;7.788;2024-01-25T14:20:30;18.70;63.90
11426;DHT22;5769;47.998;7.788;2024-01-25T14:23:05;18.70;63.90
11426;DHT22;5769;47.998;7.788;2024-01-25T14:25:32;18.70;64.00
11426;DHT22;5769;47.998;7.788;2024-01-25T14:27:59;18.70;64.10
11426;DHT22;5769;47.998;7.788;2024-01-25T14:30:34;18.70;64.20
11426;DHT22;5769;47.998;7.788;2024-01-25T14:33:05;18.70;64.20
11426;DHT22;5769;47.998;7.788;2024-01-25T14:35:34;18.70;64.30
11426;DHT22;5769;47.998;7.788;2024-01-25T14:38:01;18.70;64.40
11426;DHT22;5769;47.998;7.788;2024-01-25T14:40:28;18.60;64.30
11426;DHT22;5769;47.998;7.788;2024-01-25T14:42:55;18.70;64.50
11426;DHT22;5769;47.998;7.788;2024-01-25T14:45:22;18.60;64.50
11426;DHT22;5769;47.998;7.788;2024-01-25T14:47:52;18.60;64.50
11426;DHT22;5769;47.998;7.788;2024-01-25T14:50:24;18.70;64.60
11426;DHT22;5769;47.998;7.788;2024-01-25T14:52:54;18.60;64.50
11426;DHT22;5769;47.998;7.788;2024-01-25T14:55:23;18.70;64.50
11426;DHT22;5769;47.998;7.788;2024-01-25T14:57:50;18.70;64.50
11426;DHT22;5769;47.998;7.788;2024-01-25T15:00:17;18.70;64.50
11426;DHT22;5769;47.998;7.788;2024-01-25T15:02:45;18.70;64.60
11426;DHT22;5769;47.998;7.788;2024-01-25T15:05:12;18.70;64.50
11426;DHT22;5769;47.998;7.788;2024-01-25T15:07:43;18.70;64.60
11426;DHT22;5769;47.998;7.788;2024-01-25T15:10:10;18.70;64.60
11426;DHT22;5769;47.998;7.788;2024-01-25T15:12:37;18.70;65.40
11426;DHT22;5769;47.998;7.788;2024-01-25T15:15:09;18.70;64.70
11426;DHT22;5769;47.998;7.788;2024-01-25T15:17:35;18.70;64.70
11426;DHT22;5769;47.998;7.788;2024-01-25T15:20:03;18.70;64.70
11426;DHT22;5769;47.998;7.788;2024-01-25T15:22:32;18.70;64.80
11426;DHT22;5769;47.998;7.788;2024-01-25T15:25:00;18.70;64.80
11426;DHT22;5769;47.998;7.788;2024-01-25T15:27:27;18.70;64.80
11426;DHT22;5769;47.998;7.788;2024-01-25T15:29:53;18.70;64.70
11426;DHT22;5769;47.998;7.788;2024-01-25T15:32:20;18.80;64.80
11426;DHT22;5769;47.998;7.788;2024-01-25T15:34:47;18.80;64.70
11426;DHT22;5769;47.998;7.788;2024-01-25T15:37:14;18.80;64.80
11426;DHT22;5769;47.998;7.788;2024-01-25T15:39:40;18.80;64.70
11426;DHT22;5769;47.998;7.788;2024-01-25T15:42:11;18.80;64.80
11426;DHT22;5769;47.998;7.788;2024-01-25T15:44:38;18.80;64.70
11426;DHT22;5769;47.998;7.788;2024-01-25T15:47:06;18.80;64.70
11426;DHT22;5769;47.998;7.788;2024-01-25T15:49:32;18.80;64.70
11426;DHT22;5769;47.998;7.788;2024-01-25T15:51:59;18.80;64.70
11426;DHT22;5769;47.998;7.788;2024-01-25T15:54:29;18.80;64.70
11426;DHT22;5769;47.998;7.788;2024-01-25T15:56:58;18.80;64.70
11426;DHT22;5769;47.998;7.788;2024-01-25T15:59:26;18.80;64.80
11426;DHT22;5769;47.998;7.788;2024-01-25T16:01:53;18.90;64.90
11426;DHT22;5769;47.998;7.788;2024-01-25T16:04:23;18.80;65.00